sensor_id;sensor_type;location;lat;lon;timestamp;pressure;altitude;pressure_sealevel;temperature;humidity
36524;BME280;66329;46.796;9.824;2023-01-28T00:02:18;84119.87;;;24.92;3.60
36524;BME280;66329;46.796;9.824;2023-01-28T00:04:47;84122.31;;;25.35;3.55
36524;BME280;66329;46.796;9.824;2023-01-28T00:07:14;84122.70;;;24.91;3.58
36524;BME280;66329;46.796;9.824;2023-01-28T00:09:42;84120.90;;;24.93;3.56
36524;BME280;66329;46.796;9.824;2023-01-28T00:12:10;84122.24;;;25.31;3.56
36524;BME280;66329;46.796;9.824;2023-01-28T00:14:39;84120.41;;;24.87;3.58
36524;BME280;66329;46.796;9.824;2023-01-28T00:17:08;84118.29;;;24.90;3.55
36524;BME280;66329;46.796;9.824;2023-01-28T00:19:36;84116.55;;;24.86;3.55
36524;BME280;66329;46.796;9.824;2023-01-28T00:22:04;84116.49;;;25.26;3.59
36524;BME280;66329;46.796;9.824;2023-01-28T00:24:32;84115.96;;;25.33;3.57
36524;BME280;66329;46.796;9.824;2023-01-28T00:26:59;84116.69;;;24.95;3.54
36524;BME280;66329;46.796;9.824;2023-01-28T00:29:26;84104.03;;;25.34;3.54
36524;BME280;66329;46.796;9.824;2023-01-28T00:31:53;84107.09;;;25.32;3.54
36524;BME280;66329;46.796;9.824;2023-01-28T00:34:22;84104.89;;;25.27;3.51
36524;BME280;66329;46.796;9.824;2023-01-28T00:36:49;84106.23;;;25.33;3.53
36524;BME280;66329;46.796;9.824;2023-01-28T00:39:17;84105.82;;;25.27;3.52
36524;BME280;66329;46.796;9.824;2023-01-28T00:41:44;84111.47;;;25.31;3.53
36524;BME280;66329;46.796;9.824;2023-01-28T00:44:14;84112.96;;;24.84;3.55
36524;BME280;66329;46.796;9.824;2023-01-28T00:46:41;84115.48;;;24.39;3.52
36524;BME280;66329;46.796;9.824;2023-01-28T00:49:08;84117.39;;;24.88;3.52
36524;BME280;66329;46.796;9.824;2023-01-28T00:51:35;84120.69;;;25.32;3.53
36524;BME280;66329;46.796;9.824;2023-01-28T00:54:04;84121.71;;;24.89;3.51
36524;BME280;66329;46.796;9.824;2023-01-28T00:56:31;84118.84;;;25.26;3.53
36524;BME280;66329;46.796;9.824;2023-01-28T00:58:58;84113.00;;;24.86;3.51
36524;BME280;66329;46.796;9.824;2023-01-28T01:01:27;84115.31;;;24.90;3.49
36524;BME280;66329;46.796;9.824;2023-01-28T01:03:56;84116.91;;;24.92;3.47
36524;BME280;66329;46.796;9.824;2023-01-28T01:06:24;84116.47;;;25.29;3.47
36524;BME280;66329;46.796;9.824;2023-01-28T01:08:56;84117.51;;;24.87;3.50
36524;BME280;66329;46.796;9.824;2023-01-28T01:11:23;84116.42;;;25.23;3.50
36524;BME280;66329;46.796;9.824;2023-01-28T01:13:57;84118.52;;;25.30;3.51
36524;BME280;66329;46.796;9.824;2023-01-28T01:16:28;84126.47;;;25.25;3.49
36524;BME280;66329;46.796;9.824;2023-01-28T01:18:56;84130.05;;;25.25;3.50
36524;BME280;66329;46.796;9.824;2023-01-28T01:21:26;84125.78;;;25.22;3.49
36524;BME280;66329;46.796;9.824;2023-01-28T01:23:54;84119.37;;;24.83;3.46
36524;BME280;66329;46.796;9.824;2023-01-28T01:26:22;84124.60;;;25.29;3.46
36524;BME280;66329;46.796;9.824;2023-01-28T01:28:50;84125.74;;;25.23;3.45
36524;BME280;66329;46.796;9.824;2023-01-28T01:31:23;84122.52;;;24.84;3.46
36524;BME280;66329;46.796;9.824;2023-01-28T01:33:51;84126.48;;;25.23;3.45
36524;BME280;66329;46.796;9.824;2023-01-28T01:36:21;84129.65;;;24.35;3.45
36524;BME280;66329;46.796;9.824;2023-01-28T01:38:53;84127.14;;;25.23;3.45
36524;BME280;66329;46.796;9.824;2023-01-28T01:41:25;84124.41;;;25.22;3.48
36524;BME280;66329;46.796;9.824;2023-01-28T01:43:55;84131.34;;;25.20;3.46
36524;BME280;66329;46.796;9.824;2023-01-28T01:46:31;84132.16;;;24.75;3.46
36524;BME280;66329;46.796;9.824;2023-01-28T01:49:06;84133.68;;;25.19;3.46
36524;BME280;66329;46.796;9.824;2023-01-28T01:51:39;84135.91;;;26.09;3.45
36524;BME280;66329;46.796;9.824;2023-01-28T01:54:08;84143.43;;;25.20;3.44
36524;BME280;66329;46.796;9.824;2023-01-28T01:56:39;84145.75;;;24.75;3.48
36524;BME280;66329;46.796;9.824;2023-01-28T01:59:11;84148.22;;;24.25;3.44
36524;BME280;66329;46.796;9.824;2023-01-28T02:01:41;84146.09;;;25.21;3.42
36524;BME280;66329;46.796;9.824;2023-01-28T02:04:14;84141.04;;;25.20;3.42
36524;BME280;66329;46.796;9.824;2023-01-28T02:06:47;84136.24;;;24.82;3.42
36524;BME280;66329;46.796;9.824;2023-01-28T02:09:24;84144.11;;;24.82;3.40
36524;BME280;66329;46.796;9.824;2023-01-28T02:11:55;84143.46;;;24.81;3.40
36524;BME280;66329;46.796;9.824;2023-01-28T02:14:27;84143.61;;;24.77;3.43
36524;BME280;66329;46.796;9.824;2023-01-28T02:16:57;84142.82;;;25.14;3.43
36524;BME280;66329;46.796;9.824;2023-01-28T02:19:36;84142.38;;;25.19;3.40
36524;BME280;66329;46.796;9.824;2023-01-28T02:22:20;84143.50;;;25.09;3.41
36524;BME280;66329;46.796;9.824;2023-01-28T02:25:04;84138.86;;;24.61;3.42
36524;BME280;66329;46.796;9.824;2023-01-28T02:27:52;84140.38;;;24.12;3.41
36524;BME280;66329;46.796;9.824;2023-01-28T02:30:29;84143.93;;;25.04;3.42
36524;BME280;66329;46.796;9.824;2023-01-28T02:33:05;84149.42;;;24.63;3.43
36524;BME280;66329;46.796;9.824;2023-01-28T02:35:40;84153.23;;;25.10;3.40
36524;BME280;66329;46.796;9.824;2023-01-28T02:38:13;84148.54;;;25.09;3.42
36524;BME280;66329;46.796;9.824;2023-01-28T02:40:47;84143.52;;;25.06;3.41
36524;BME280;66329;46.796;9.824;2023-01-28T02:43:28;84146.47;;;25.08;3.44
36524;BME280;66329;46.796;9.824;2023-01-28T02:46:07;84149.37;;;25.05;3.41
36524;BME280;66329;46.796;9.824;2023-01-28T02:48:38;84149.83;;;25.90;3.45
36524;BME280;66329;46.796;9.824;2023-01-28T02:51:13;84148.09;;;24.67;3.41
36524;BME280;66329;46.796;9.824;2023-01-28T02:53:54;84146.53;;;25.05;3.42
36524;BME280;66329;46.796;9.824;2023-01-28T02:56:27;84151.45;;;25.03;3.43
36524;BME280;66329;46.796;9.824;2023-01-28T02:59:03;84158.58;;;24.64;3.39
36524;BME280;66329;46.796;9.824;2023-01-28T03:01:41;84148.50;;;24.11;3.42
36524;BME280;66329;46.796;9.824;2023-01-28T03:04:18;84151.60;;;25.02;3.44
36524;BME280;66329;46.796;9.824;2023-01-28T03:06:52;84153.96;;;25.01;3.43
36524;BME280;66329;46.796;9.824;2023-01-28T03:09:22;84152.68;;;24.73;3.41
36524;BME280;66329;46.796;9.824;2023-01-28T03:11:56;84152.00;;;25.09;3.41
36524;BME280;66329;46.796;9.824;2023-01-28T03:14:25;84150.02;;;25.13;3.39
36524;BME280;66329;46.796;9.824;2023-01-28T03:16:58;84152.78;;;24.69;3.39
36524;BME280;66329;46.796;9.824;2023-01-28T03:19:26;84152.41;;;24.67;3.41
36524;BME280;66329;46.796;9.824;2023-01-28T03:21:54;84151.60;;;25.10;3.41
36524;BME280;66329;46.796;9.824;2023-01-28T03:24:25;84154.62;;;24.69;3.42
36524;BME280;66329;46.796;9.824;2023-01-28T03:27:00;84155.78;;;25.19;3.36
36524;BME280;66329;46.796;9.824;2023-01-28T03:29:32;84158.50;;;25.13;3.39
36524;BME280;66329;46.796;9.824;2023-01-28T03:32:01;84153.60;;;24.70;3.41
36524;BME280;66329;46.796;9.824;2023-01-28T03:34:30;84156.48;;;25.11;3.40
36524;BME280;66329;46.796;9.824;2023-01-28T03:36:59;84153.50;;;24.73;3.41
36524;BME280;66329;46.796;9.824;2023-01-28T03:39:28;84156.96;;;25.17;3.35
36524;BME280;66329;46.796;9.824;2023-01-28T03:41:59;84156.86;;;25.15;3.38
36524;BME280;66329;46.796;9.824;2023-01-28T03:44:33;84162.30;;;25.11;3.39
36524;BME280;66329;46.796;9.824;2023-01-28T03:47:00;84165.98;;;25.11;3.35
36524;BME280;66329;46.796;9.824;2023-01-28T03:49:27;84163.36;;;24.75;3.31
36524;BME280;66329;46.796;9.824;2023-01-28T03:51:59;84160.41;;;24.79;3.29
36524;BME280;66329;46.796;9.824;2023-01-28T03:54:27;84164.84;;;24.78;3.29
36524;BME280;66329;46.796;9.824;2023-01-28T03:56:54;84170.95;;;24.80;3.27
36524;BME280;66329;46.796;9.824;2023-01-28T03:59:22;84174.38;;;24.79;3.30
36524;BME280;66329;46.796;9.824;2023-01-28T04:01:49;84170.04;;;24.78;3.27
36524;BME280;66329;46.796;9.824;2023-01-28T04:04:17;84170.01;;;25.19;3.28
36524;BME280;66329;46.796;9.824;2023-01-28T04:06:46;84177.15;;;25.17;3.24
36524;BME280;66329;46.796;9.824;2023-01-28T04:09:13;84174.13;;;24.83;3.27
36524;BME280;66329;46.796;9.824;2023-01-28T04:11:41;84180.45;;;25.24;3.23
36524;BME280;66329;46.796;9.824;2023-01-28T04:14:09;84185.27;;;24.79;3.25
36524;BME280;66329;46.796;9.824;2023-01-28T04:16:36;84192.98;;;25.20;3.24
36524;BME280;66329;46.796;9.824;2023-01-28T04:19:04;84196.62;;;24.78;3.23
36524;BME280;66329;46.796;9.824;2023-01-28T04:21:33;84188.92;;;25.19;3.24
36524;BME280;66329;46.796;9.824;2023-01-28T04:24:02;84191.63;;;24.27;3.23
36524;BME280;66329;46.796;9.824;2023-01-28T04:26:30;84192.45;;;25.23;3.20
36524;BME280;66329;46.796;9.824;2023-01-28T04:28:58;84196.89;;;24.84;3.21
36524;BME280;66329;46.796;9.824;2023-01-28T04:31:25;84193.34;;;25.21;3.23
36524;BME280;66329;46.796;9.824;2023-01-28T04:33:52;84191.73;;;25.18;3.24
36524;BME280;66329;46.796;9.824;2023-01-28T04:36:20;84193.81;;;24.76;3.20
36524;BME280;66329;46.796;9.824;2023-01-28T04:38:47;84191.84;;;24.82;3.16
36524;BME280;66329;46.796;9.824;2023-01-28T04:41:15;84195.45;;;24.87;3.20
36524;BME280;66329;46.796;9.824;2023-01-28T04:43:42;84196.44;;;25.25;3.20
36524;BME280;66329;46.796;9.824;2023-01-28T04:46:09;84197.20;;;24.78;3.22
36524;BME280;66329;46.796;9.824;2023-01-28T04:48:37;84202.13;;;25.25;3.18
36524;BME280;66329;46.796;9.824;2023-01-28T04:51:05;84200.69;;;25.17;3.20
36524;BME280;66329;46.796;9.824;2023-01-28T04:53:33;84199.20;;;25.20;3.20
36524;BME280;66329;46.796;9.824;2023-01-28T04:56:01;84197.41;;;24.77;3.14
36524;BME280;66329;46.796;9.824;2023-01-28T04:58:29;84190.40;;;24.76;3.19
36524;BME280;66329;46.796;9.824;2023-01-28T05:00:57;84186.04;;;24.80;3.18
36524;BME280;66329;46.796;9.824;2023-01-28T05:03:25;84189.11;;;25.22;3.18
36524;BME280;66329;46.796;9.824;2023-01-28T05:05:52;84190.43;;;24.74;3.13
36524;BME280;66329;46.796;9.824;2023-01-28T05:08:20;84197.53;;;24.79;3.10
36524;BME280;66329;46.796;9.824;2023-01-28T05:10:47;84196.91;;;24.78;3.12
36524;BME280;66329;46.796;9.824;2023-01-28T05:13:19;84197.81;;;25.14;3.12
36524;BME280;66329;46.796;9.824;2023-01-28T05:15:50;84197.41;;;25.16;3.12
36524;BME280;66329;46.796;9.824;2023-01-28T05:18:18;84202.71;;;24.79;3.08
36524;BME280;66329;46.796;9.824;2023-01-28T05:20:45;84207.25;;;25.18;3.09
36524;BME280;66329;46.796;9.824;2023-01-28T05:23:13;84210.20;;;25.18;3.06
36524;BME280;66329;46.796;9.824;2023-01-28T05:25:40;84209.18;;;25.11;3.07
36524;BME280;66329;46.796;9.824;2023-01-28T05:28:07;84214.78;;;25.13;3.07
36524;BME280;66329;46.796;9.824;2023-01-28T05:30:36;84217.42;;;25.09;3.08
36524;BME280;66329;46.796;9.824;2023-01-28T05:33:03;84221.29;;;25.14;3.06
36524;BME280;66329;46.796;9.824;2023-01-28T05:35:31;84224.43;;;25.09;3.07
36524;BME280;66329;46.796;9.824;2023-01-28T05:37:58;84228.78;;;24.73;3.00
36524;BME280;66329;46.796;9.824;2023-01-28T05:40:26;84232.68;;;24.70;3.00
36524;BME280;66329;46.796;9.824;2023-01-28T05:42:53;84233.83;;;24.66;3.01
36524;BME280;66329;46.796;9.824;2023-01-28T05:45:20;84238.62;;;25.10;2.96
36524;BME280;66329;46.796;9.824;2023-01-28T05:47:47;84243.58;;;24.67;2.96
36524;BME280;66329;46.796;9.824;2023-01-28T05:50:15;84251.53;;;24.63;2.98
36524;BME280;66329;46.796;9.824;2023-01-28T05:52:42;84255.85;;;24.71;2.91
36524;BME280;66329;46.796;9.824;2023-01-28T05:55:10;84257.39;;;24.72;2.96
36524;BME280;66329;46.796;9.824;2023-01-28T05:57:37;84260.05;;;24.74;2.94
36524;BME280;66329;46.796;9.824;2023-01-28T06:00:06;84259.61;;;24.25;2.90
36524;BME280;66329;46.796;9.824;2023-01-28T06:02:33;84263.22;;;24.79;2.84
36524;BME280;66329;46.796;9.824;2023-01-28T06:05:01;84266.67;;;24.84;2.86
36524;BME280;66329;46.796;9.824;2023-01-28T06:07:28;84266.17;;;24.79;2.89
36524;BME280;66329;46.796;9.824;2023-01-28T06:09:55;84267.51;;;24.79;2.84
36524;BME280;66329;46.796;9.824;2023-01-28T06:12:22;84267.42;;;25.13;2.87
36524;BME280;66329;46.796;9.824;2023-01-28T06:14:49;84270.16;;;24.75;2.92
36524;BME280;66329;46.796;9.824;2023-01-28T06:17:17;84271.95;;;24.71;2.87
36524;BME280;66329;46.796;9.824;2023-01-28T06:19:45;84268.53;;;24.69;2.89
36524;BME280;66329;46.796;9.824;2023-01-28T06:22:13;84273.83;;;25.13;2.87
36524;BME280;66329;46.796;9.824;2023-01-28T06:24:41;84277.38;;;24.71;2.83
36524;BME280;66329;46.796;9.824;2023-01-28T06:27:07;84276.31;;;24.78;2.83
36524;BME280;66329;46.796;9.824;2023-01-28T06:29:35;84277.75;;;25.14;2.86
36524;BME280;66329;46.796;9.824;2023-01-28T06:32:02;84280.09;;;25.06;2.85
36524;BME280;66329;46.796;9.824;2023-01-28T06:34:29;84286.81;;;25.07;2.84
36524;BME280;66329;46.796;9.824;2023-01-28T06:36:57;84293.44;;;24.59;2.83
36524;BME280;66329;46.796;9.824;2023-01-28T06:39:24;84291.08;;;25.06;2.84
36524;BME280;66329;46.796;9.824;2023-01-28T06:41:51;84294.27;;;25.45;2.80
36524;BME280;66329;46.796;9.824;2023-01-28T06:44:18;84296.87;;;24.66;2.80
36524;BME280;66329;46.796;9.824;2023-01-28T06:46:46;84298.38;;;24.17;2.80
36524;BME280;66329;46.796;9.824;2023-01-28T06:49:13;84304.52;;;25.13;2.80
36524;BME280;66329;46.796;9.824;2023-01-28T06:51:41;84301.16;;;25.11;2.79
36524;BME280;66329;46.796;9.824;2023-01-28T06:54:08;84301.64;;;25.10;2.81
36524;BME280;66329;46.796;9.824;2023-01-28T06:56:35;84302.57;;;25.03;2.79
36524;BME280;66329;46.796;9.824;2023-01-28T06:59:02;84308.58;;;25.00;2.82
36524;BME280;66329;46.796;9.824;2023-01-28T07:01:30;84310.15;;;24.61;2.77
36524;BME280;66329;46.796;9.824;2023-01-28T07:03:57;84310.27;;;24.10;2.80
36524;BME280;66329;46.796;9.824;2023-01-28T07:06:24;84315.92;;;25.02;2.79
36524;BME280;66329;46.796;9.824;2023-01-28T07:08:52;84318.54;;;24.65;2.78
36524;BME280;66329;46.796;9.824;2023-01-28T07:11:19;84318.40;;;25.10;2.73
36524;BME280;66329;46.796;9.824;2023-01-28T07:13:46;84319.48;;;25.01;2.72
36524;BME280;66329;46.796;9.824;2023-01-28T07:16:13;84318.00;;;25.02;2.78
36524;BME280;66329;46.796;9.824;2023-01-28T07:18:40;84321.98;;;24.64;2.74
36524;BME280;66329;46.796;9.824;2023-01-28T07:21:07;84321.68;;;25.03;2.72
36524;BME280;66329;46.796;9.824;2023-01-28T07:23:35;84321.59;;;25.04;2.69
36524;BME280;66329;46.796;9.824;2023-01-28T07:26:03;84320.09;;;25.01;2.74
36524;BME280;66329;46.796;9.824;2023-01-28T07:28:31;84321.09;;;25.01;2.71
36524;BME280;66329;46.796;9.824;2023-01-28T07:30:58;84321.31;;;25.05;2.74
36524;BME280;66329;46.796;9.824;2023-01-28T07:33:25;84322.91;;;24.58;2.69
36524;BME280;66329;46.796;9.824;2023-01-28T07:35:52;84325.11;;;25.04;2.71
36524;BME280;66329;46.796;9.824;2023-01-28T07:38:19;84322.77;;;25.03;2.70
36524;BME280;66329;46.796;9.824;2023-01-28T07:40:46;84323.08;;;24.63;2.68
36524;BME280;66329;46.796;9.824;2023-01-28T07:43:13;84327.26;;;24.58;2.74
36524;BME280;66329;46.796;9.824;2023-01-28T07:45:41;84328.53;;;25.04;2.69
36524;BME280;66329;46.796;9.824;2023-01-28T07:48:11;84329.22;;;24.66;2.64
36524;BME280;66329;46.796;9.824;2023-01-28T07:50:39;84327.80;;;24.16;2.70
36524;BME280;66329;46.796;9.824;2023-01-28T07:53:08;84327.91;;;25.05;2.68
36524;BME280;66329;46.796;9.824;2023-01-28T07:55:36;84327.55;;;24.53;2.70
36524;BME280;66329;46.796;9.824;2023-01-28T07:58:07;84332.51;;;24.55;2.68
36524;BME280;66329;46.796;9.824;2023-01-28T08:00:36;84336.02;;;24.54;2.64
36524;BME280;66329;46.796;9.824;2023-01-28T08:03:05;84339.64;;;24.91;2.67
36524;BME280;66329;46.796;9.824;2023-01-28T08:05:38;84342.44;;;24.89;2.69
36524;BME280;66329;46.796;9.824;2023-01-28T08:08:07;84349.94;;;24.87;2.68
36524;BME280;66329;46.796;9.824;2023-01-28T08:10:36;84351.24;;;24.89;2.63
36524;BME280;66329;46.796;9.824;2023-01-28T08:13:04;84352.20;;;24.94;2.66
36524;BME280;66329;46.796;9.824;2023-01-28T08:15:31;84355.59;;;24.48;2.65
36524;BME280;66329;46.796;9.824;2023-01-28T08:18:00;84358.48;;;24.87;2.67
36524;BME280;66329;46.796;9.824;2023-01-28T08:20:28;84357.82;;;24.95;2.66
36524;BME280;66329;46.796;9.824;2023-01-28T08:23:05;84365.67;;;24.46;2.64
36524;BME280;66329;46.796;9.824;2023-01-28T08:25:33;84371.64;;;24.44;2.64
36524;BME280;66329;46.796;9.824;2023-01-28T08:28:02;84375.22;;;24.46;2.61
36524;BME280;66329;46.796;9.824;2023-01-28T08:30:30;84376.27;;;24.95;2.65
36524;BME280;66329;46.796;9.824;2023-01-28T08:32:58;84376.66;;;24.06;2.63
36524;BME280;66329;46.796;9.824;2023-01-28T08:35:27;84375.76;;;24.98;2.58
36524;BME280;66329;46.796;9.824;2023-01-28T08:37:54;84375.83;;;24.90;2.62
36524;BME280;66329;46.796;9.824;2023-01-28T08:40:22;84377.26;;;24.49;2.59
36524;BME280;66329;46.796;9.824;2023-01-28T08:42:50;84379.66;;;24.52;2.62
36524;BME280;66329;46.796;9.824;2023-01-28T08:45:19;84382.29;;;24.94;2.60
36524;BME280;66329;46.796;9.824;2023-01-28T08:47:47;84384.08;;;24.94;2.62
36524;BME280;66329;46.796;9.824;2023-01-28T08:50:15;84385.09;;;24.94;2.61
36524;BME280;66329;46.796;9.824;2023-01-28T08:52:42;84387.80;;;24.96;2.61
36524;BME280;66329;46.796;9.824;2023-01-28T08:55:10;84386.59;;;24.91;2.63
36524;BME280;66329;46.796;9.824;2023-01-28T08:57:38;84386.72;;;24.92;2.60
36524;BME280;66329;46.796;9.824;2023-01-28T09:00:07;84387.82;;;24.95;2.60
36524;BME280;66329;46.796;9.824;2023-01-28T09:02:35;84385.46;;;24.94;2.59
36524;BME280;66329;46.796;9.824;2023-01-28T09:05:04;84385.88;;;24.99;2.57
36524;BME280;66329;46.796;9.824;2023-01-28T09:07:33;84382.03;;;24.96;2.61
36524;BME280;66329;46.796;9.824;2023-01-28T09:10:00;84381.45;;;24.50;2.56
36524;BME280;66329;46.796;9.824;2023-01-28T09:12:27;84382.10;;;24.91;2.59
36524;BME280;66329;46.796;9.824;2023-01-28T09:14:54;84383.50;;;24.48;2.58
36524;BME280;66329;46.796;9.824;2023-01-28T09:17:22;84385.67;;;24.48;2.58
36524;BME280;66329;46.796;9.824;2023-01-28T09:19:49;84390.42;;;24.93;2.60
36524;BME280;66329;46.796;9.824;2023-01-28T09:22:17;84394.21;;;24.89;2.59
36524;BME280;66329;46.796;9.824;2023-01-28T09:24:44;84391.75;;;24.45;2.59
36524;BME280;66329;46.796;9.824;2023-01-28T09:27:11;84391.78;;;25.76;2.60
36524;BME280;66329;46.796;9.824;2023-01-28T09:29:38;84389.68;;;24.84;2.60
36524;BME280;66329;46.796;9.824;2023-01-28T09:32:05;84390.25;;;24.87;2.62
36524;BME280;66329;46.796;9.824;2023-01-28T09:34:33;84390.01;;;24.90;2.59
36524;BME280;66329;46.796;9.824;2023-01-28T09:37:00;84387.64;;;24.88;2.63
36524;BME280;66329;46.796;9.824;2023-01-28T09:39:27;84389.65;;;24.93;2.61
36524;BME280;66329;46.796;9.824;2023-01-28T09:42:06;84386.44;;;24.48;2.63
36524;BME280;66329;46.796;9.824;2023-01-28T09:44:49;84383.67;;;24.46;2.63
36524;BME280;66329;46.796;9.824;2023-01-28T09:47:26;84386.89;;;24.80;2.66
36524;BME280;66329;46.796;9.824;2023-01-28T09:49:58;84385.65;;;24.44;2.63
36524;BME280;66329;46.796;9.824;2023-01-28T09:52:31;84384.38;;;24.93;2.64
36524;BME280;66329;46.796;9.824;2023-01-28T09:55:03;84382.55;;;24.87;2.63
36524;BME280;66329;46.796;9.824;2023-01-28T09:57:38;84381.82;;;24.91;2.63
36524;BME280;66329;46.796;9.824;2023-01-28T10:00:12;84384.06;;;24.91;2.63
36524;BME280;66329;46.796;9.824;2023-01-28T10:02:53;84381.04;;;24.85;2.66
36524;BME280;66329;46.796;9.824;2023-01-28T10:05:27;84377.40;;;24.90;2.67
36524;BME280;66329;46.796;9.824;2023-01-28T10:08:09;84374.98;;;24.41;2.68
36524;BME280;66329;46.796;9.824;2023-01-28T10:10:45;84376.51;;;24.89;2.66
36524;BME280;66329;46.796;9.824;2023-01-28T10:13:22;84378.14;;;24.92;2.64
36524;BME280;66329;46.796;9.824;2023-01-28T10:16:05;84373.69;;;24.01;2.69
36524;BME280;66329;46.796;9.824;2023-01-28T10:18:40;84373.84;;;24.99;2.68
36524;BME280;66329;46.796;9.824;2023-01-28T10:21:13;84373.84;;;24.94;2.71
36524;BME280;66329;46.796;9.824;2023-01-28T10:23:51;84373.38;;;24.91;2.71
36524;BME280;66329;46.796;9.824;2023-01-28T10:26:24;84372.16;;;24.91;2.70
36524;BME280;66329;46.796;9.824;2023-01-28T10:28:56;84370.04;;;24.50;2.72
36524;BME280;66329;46.796;9.824;2023-01-28T10:31:31;84367.75;;;24.53;2.71
36524;BME280;66329;46.796;9.824;2023-01-28T10:34:01;84366.57;;;24.48;2.72
36524;BME280;66329;46.796;9.824;2023-01-28T10:36:29;84363.41;;;24.52;2.72
36524;BME280;66329;46.796;9.824;2023-01-28T10:38:57;84360.84;;;25.01;2.72
36524;BME280;66329;46.796;9.824;2023-01-28T10:41:25;84356.59;;;24.97;2.73
36524;BME280;66329;46.796;9.824;2023-01-28T10:43:52;84350.86;;;25.00;2.75
36524;BME280;66329;46.796;9.824;2023-01-28T10:46:22;84349.64;;;24.96;2.74
36524;BME280;66329;46.796;9.824;2023-01-28T10:48:58;84349.44;;;25.01;2.72
36524;BME280;66329;46.796;9.824;2023-01-28T10:51:31;84348.72;;;25.45;2.73
36524;BME280;66329;46.796;9.824;2023-01-28T10:53:59;84349.63;;;24.97;2.75
36524;BME280;66329;46.796;9.824;2023-01-28T10:56:29;84347.92;;;24.62;2.74
36524;BME280;66329;46.796;9.824;2023-01-28T10:59:00;84346.60;;;24.69;2.74
36524;BME280;66329;46.796;9.824;2023-01-28T11:01:45;84346.92;;;25.09;2.75
36524;BME280;66329;46.796;9.824;2023-01-28T11:04:18;84341.46;;;24.63;2.78
36524;BME280;66329;46.796;9.824;2023-01-28T11:06:56;84338.27;;;24.61;2.79
36524;BME280;66329;46.796;9.824;2023-01-28T11:09:25;84338.42;;;24.14;2.80
36524;BME280;66329;46.796;9.824;2023-01-28T11:11:53;84337.05;;;25.15;2.80
36524;BME280;66329;46.796;9.824;2023-01-28T11:14:22;84338.41;;;24.20;2.81
36524;BME280;66329;46.796;9.824;2023-01-28T11:16:52;84340.46;;;25.12;2.83
36524;BME280;66329;46.796;9.824;2023-01-28T11:19:26;84340.81;;;24.21;2.82
36524;BME280;66329;46.796;9.824;2023-01-28T11:21:55;84344.71;;;25.13;2.84
36524;BME280;66329;46.796;9.824;2023-01-28T11:24:27;84342.90;;;24.22;2.83
36524;BME280;66329;46.796;9.824;2023-01-28T11:26:57;84338.73;;;25.17;2.84
36524;BME280;66329;46.796;9.824;2023-01-28T11:29:27;84340.39;;;24.71;2.88
36524;BME280;66329;46.796;9.824;2023-01-28T11:31:58;84343.08;;;24.69;2.91
36524;BME280;66329;46.796;9.824;2023-01-28T11:34:28;84345.50;;;25.08;2.93
36524;BME280;66329;46.796;9.824;2023-01-28T11:37:02;84344.32;;;24.23;2.91
36524;BME280;66329;46.796;9.824;2023-01-28T11:39:30;84344.86;;;25.17;2.94
36524;BME280;66329;46.796;9.824;2023-01-28T11:42:15;84340.66;;;24.76;2.95
36524;BME280;66329;46.796;9.824;2023-01-28T11:44:44;84341.73;;;25.14;2.97
36524;BME280;66329;46.796;9.824;2023-01-28T11:47:21;84341.61;;;24.72;2.98
36524;BME280;66329;46.796;9.824;2023-01-28T11:50:02;84339.10;;;24.69;3.01
36524;BME280;66329;46.796;9.824;2023-01-28T11:52:39;84338.38;;;25.13;3.00
36524;BME280;66329;46.796;9.824;2023-01-28T11:55:21;84334.87;;;25.15;2.99
36524;BME280;66329;46.796;9.824;2023-01-28T11:57:59;84333.22;;;25.13;2.98
36524;BME280;66329;46.796;9.824;2023-01-28T12:00:37;84331.72;;;24.75;3.03
36524;BME280;66329;46.796;9.824;2023-01-28T12:03:23;84331.67;;;24.74;3.01
36524;BME280;66329;46.796;9.824;2023-01-28T12:05:54;84331.90;;;25.14;3.05
36524;BME280;66329;46.796;9.824;2023-01-28T12:08:25;84331.83;;;25.16;3.06
36524;BME280;66329;46.796;9.824;2023-01-28T12:11:09;84333.46;;;24.27;3.07
36524;BME280;66329;46.796;9.824;2023-01-28T12:13:47;84334.95;;;25.16;3.06
36524;BME280;66329;46.796;9.824;2023-01-28T12:16:33;84333.78;;;25.15;3.09
36524;BME280;66329;46.796;9.824;2023-01-28T12:19:17;84332.99;;;25.13;3.11
36524;BME280;66329;46.796;9.824;2023-01-28T12:22:02;84333.48;;;25.14;3.12
36524;BME280;66329;46.796;9.824;2023-01-28T12:24:42;84333.38;;;25.17;3.12
36524;BME280;66329;46.796;9.824;2023-01-28T12:27:25;84332.78;;;24.81;3.12
36524;BME280;66329;46.796;9.824;2023-01-28T12:30:01;84334.58;;;25.20;3.09
36524;BME280;66329;46.796;9.824;2023-01-28T12:32:43;84334.54;;;25.26;3.12
36524;BME280;66329;46.796;9.824;2023-01-28T12:35:39;84338.77;;;24.81;3.10
36524;BME280;66329;46.796;9.824;2023-01-28T12:38:14;84337.71;;;25.58;3.12
36524;BME280;66329;46.796;9.824;2023-01-28T12:40:50;84338.66;;;25.17;3.12
36524;BME280;66329;46.796;9.824;2023-01-28T12:43:26;84336.01;;;24.25;3.11
36524;BME280;66329;46.796;9.824;2023-01-28T12:46:02;84331.70;;;25.61;3.12
36524;BME280;66329;46.796;9.824;2023-01-28T12:48:35;84331.02;;;24.28;3.12
36524;BME280;66329;46.796;9.824;2023-01-28T12:51:09;84331.81;;;24.72;3.13
36524;BME280;66329;46.796;9.824;2023-01-28T12:53:42;84330.03;;;25.12;3.15
36524;BME280;66329;46.796;9.824;2023-01-28T12:56:15;84330.28;;;24.76;3.17
36524;BME280;66329;46.796;9.824;2023-01-28T12:58:47;84325.01;;;24.80;3.16
36524;BME280;66329;46.796;9.824;2023-01-28T13:01:20;84325.79;;;24.84;3.17
36524;BME280;66329;46.796;9.824;2023-01-28T13:03:54;84324.63;;;24.85;3.17
36524;BME280;66329;46.796;9.824;2023-01-28T13:06:28;84328.16;;;24.89;3.20
36524;BME280;66329;46.796;9.824;2023-01-28T13:09:00;84330.50;;;25.21;3.23
36524;BME280;66329;46.796;9.824;2023-01-28T13:11:34;84330.19;;;25.24;3.21
36524;BME280;66329;46.796;9.824;2023-01-28T13:14:02;84328.00;;;24.80;3.23
36524;BME280;66329;46.796;9.824;2023-01-28T13:16:31;84327.41;;;24.83;3.24
36524;BME280;66329;46.796;9.824;2023-01-28T13:19:19;84324.95;;;25.21;3.23
36524;BME280;66329;46.796;9.824;2023-01-28T13:21:47;84325.98;;;24.79;3.23
36524;BME280;66329;46.796;9.824;2023-01-28T13:24:22;84324.76;;;25.29;3.21
36524;BME280;66329;46.796;9.824;2023-01-28T13:26:51;84322.16;;;24.85;3.21
36524;BME280;66329;46.796;9.824;2023-01-28T13:29:28;84322.91;;;25.28;3.21